Fallsington, Pennsylvania
Current Conditions -  °F | °C
As of 9:53 AM on Saturday 22 Nov 2014 (Local Time) from KTTN Reporting Station
Clear Clear  
Wind Chill: 24°   Ceiling: Unl
Heat Index: 32°   Visibility: 9mi
Dew Point: 12°   Wind: 10mph
Humidity: 44%   Direction: 230°SW
Pressure: 30.48"   Gusts: NA
Location:  40.1722°N, 74.822°W
Report Text: KTTN 221453Z 23009KT 9SM CLR 00/M11 A3048 RMK AO2 SLP317 T00001111 58007
Loading
Personal Weather Stations






























Interactive Weather Map New forecast layout! Learn more

10-Day Weather Forecast

Advertisements
Track Severe Weather on mobile